Time;durP1;ratioP1;P1;durP2;ratioP2;P2;SDS_P1;SDS_P2;PMS_P1;PMS_P2;Temp;Humidity;BMP_temperature;BMP_pressure;BME280_temperature;BME280_humidity;BME280_pressure;Samples;Min_cycle;Max_cycle;Signal;HPM_P1;HPM_P2
2020/12/30 00:00:53;;;;;;;6.55;5.45;;;5.10;73.90;;;;;;5045406;28;20040;-75
2020/12/30 00:03:20;;;;;;;7.13;5.47;;;5.10;73.90;;;;;;5047012;28;20210;-75
2020/12/30 00:05:46;;;;;;;9.73;5.75;;;5.00;73.80;;;;;;5045226;28;20124;-76
2020/12/30 00:08:12;;;;;;;8.60;5.50;;;5.00;73.80;;;;;;5046309;28;20127;-75
2020/12/30 00:10:38;;;;;;;7.97;5.78;;;4.90;73.70;;;;;;5046711;28;20520;-76
2020/12/30 00:13:05;;;;;;;7.20;5.30;;;4.90;73.70;;;;;;5046498;28;20341;-77
2020/12/30 00:15:31;;;;;;;7.03;5.90;;;4.90;73.70;;;;;;5047575;28;20444;-77
2020/12/30 00:17:57;;;;;;;8.65;6.10;;;4.80;73.60;;;;;;5047951;28;20267;-75
2020/12/30 00:20:23;;;;;;;9.02;6.57;;;4.70;73.40;;;;;;5045325;28;20033;-75
2020/12/30 00:22:49;;;;;;;7.93;5.72;;;4.70;73.50;;;;;;5043294;28;20072;-76
2020/12/30 00:25:18;;;;;;;6.65;4.80;;;4.70;73.50;;;;;;5046453;28;20162;-75
2020/12/30 00:27:45;;;;;;;9.40;5.57;;;4.60;73.40;;;;;;5046487;28;20037;-76
2020/12/30 00:30:18;;;;;;;9.05;5.97;;;4.60;73.40;;;;;;5046451;28;20033;-76
2020/12/30 00:32:47;;;;;;;8.82;6.47;;;4.60;73.40;;;;;;5028712;28;20508;-76
2020/12/30 00:35:15;;;;;;;7.25;5.97;;;4.50;73.30;;;;;;5045982;28;20195;-76
2020/12/30 00:37:41;;;;;;;8.32;5.78;;;4.50;73.30;;;;;;5044389;28;20037;-77
2020/12/30 00:40:08;;;;;;;7.13;5.32;;;4.40;73.20;;;;;;5045744;28;20681;-78
2020/12/30 00:42:35;;;;;;;11.13;5.93;;;4.40;73.20;;;;;;5046138;28;20095;-76
2020/12/30 00:45:03;;;;;;;8.10;6.00;;;4.40;73.30;;;;;;5045532;28;20166;-76
2020/12/30 00:47:29;;;;;;;8.60;5.68;;;4.40;73.30;;;;;;5044559;28;20425;-77
2020/12/30 00:49:56;;;;;;;7.60;5.60;;;4.30;73.10;;;;;;5045835;28;20025;-78
2020/12/30 00:52:23;;;;;;;7.80;5.15;;;4.30;73.20;;;;;;5044200;28;20165;-78
2020/12/30 00:54:53;;;;;;;9.35;5.88;;;4.30;73.20;;;;;;5043632;28;20037;-76
2020/12/30 00:57:30;;;;;;;7.72;5.85;;;4.30;73.20;;;;;;5043635;28;20380;-77
2020/12/30 00:59:56;;;;;;;8.07;6.00;;;4.20;73.10;;;;;;5043722;28;20033;-78
2020/12/30 01:02:29;;;;;;;7.38;5.38;;;4.20;73.10;;;;;;5042654;28;20357;-77
2020/12/30 01:04:55;;;;;;;7.18;5.30;;;4.20;73.10;;;;;;5022915;28;20354;-78
2020/12/30 01:07:21;;;;;;;7.95;5.97;;;4.10;73.00;;;;;;5023757;28;20084;-77
2020/12/30 01:09:47;;;;;;;12.38;5.47;;;4.10;73.00;;;;;;5053718;28;20070;-77
2020/12/30 01:12:13;;;;;;;6.40;4.88;;;4.10;73.00;;;;;;5044174;28;20033;-77
2020/12/30 01:14:39;;;;;;;8.50;6.45;;;4.00;72.80;;;;;;5043802;28;20029;-76
2020/12/30 01:17:05;;;;;;;7.35;5.88;;;4.00;72.90;;;;;;5046359;28;20349;-77
2020/12/30 01:19:31;;;;;;;8.27;5.88;;;4.00;72.90;;;;;;5045532;28;20147;-76
2020/12/30 01:21:57;;;;;;;9.23;5.35;;;4.00;72.90;;;;;;5043516;28;20136;-76
2020/12/30 01:24:23;;;;;;;7.65;6.05;;;4.00;73.00;;;;;;5044996;28;20025;-78
2020/12/30 01:26:49;;;;;;;5.60;4.50;;;3.90;72.80;;;;;;5043057;28;20059;-77
2020/12/30 01:29:15;;;;;;;6.05;4.97;;;3.90;72.80;;;;;;5045371;28;20025;-80
2020/12/30 01:31:41;;;;;;;8.77;5.60;;;3.90;72.90;;;;;;5045384;28;20114;-77
2020/12/30 01:34:07;;;;;;;8.68;5.50;;;3.90;72.90;;;;;;5045335;28;20029;-77
2020/12/30 01:36:35;;;;;;;6.82;5.70;;;3.80;72.80;;;;;;5044031;28;20043;-77
2020/12/30 01:39:02;;;;;;;9.35;5.65;;;3.80;72.80;;;;;;5044941;28;20146;-78
2020/12/30 01:41:28;;;;;;;9.00;6.15;;;3.80;72.80;;;;;;5044540;28;20044;-76
2020/12/30 01:44:04;;;;;;;9.65;5.32;;;3.80;72.80;;;;;;5043536;28;20385;-76
2020/12/30 01:46:40;;;;;;;7.57;5.90;;;3.70;72.60;;;;;;5044452;28;20191;-76
2020/12/30 01:49:17;;;;;;;6.45;5.50;;;3.70;72.70;;;;;;5044742;28;20362;-76
2020/12/30 01:51:44;;;;;;;6.15;5.35;;;3.70;72.70;;;;;;5045871;28;20040;-80
2020/12/30 01:54:15;;;;;;;6.43;4.88;;;3.70;72.70;;;;;;5046950;28;20037;-77
2020/12/30 01:56:42;;;;;;;8.30;4.97;;;3.70;72.70;;;;;;5046972;28;20387;-78
2020/12/30 01:59:10;;;;;;;8.35;4.75;;;3.60;72.60;;;;;;5050741;28;20029;-80
2020/12/30 02:01:38;;;;;;;10.82;5.45;;;3.60;72.60;;;;;;5049380;28;20033;-77
2020/12/30 02:04:05;;;;;;;9.23;5.35;;;3.60;72.60;;;;;;5049462;28;20072;-81
2020/12/30 02:06:33;;;;;;;6.97;5.85;;;3.60;72.70;;;;;;5051049;28;20029;-80
2020/12/30 02:08:59;;;;;;;6.15;5.38;;;3.50;72.50;;;;;;5050398;28;20420;-83
2020/12/30 02:11:26;;;;;;;5.97;5.28;;;3.50;72.50;;;;;;5051969;28;20058;-81
2020/12/30 02:14:06;;;;;;;9.23;5.63;;;3.50;72.60;;;;;;5049581;28;20036;-78
2020/12/30 02:16:52;;;;;;;8.65;5.20;;;3.50;72.60;;;;;;5050476;28;20184;-77
2020/12/30 02:19:19;;;;;;;7.80;4.80;;;3.50;72.60;;;;;;5050540;28;20057;-78
2020/12/30 02:21:46;;;;;;;8.45;5.13;;;3.40;73.00;;;;;;5051428;28;20504;-78
2020/12/30 02:24:31;;;;;;;5.40;4.88;;;3.40;72.50;;;;;;5052239;28;20227;-81
2020/12/30 02:26:59;;;;;;;7.18;5.13;;;3.40;72.50;;;;;;5051122;28;20482;-79
2020/12/30 02:29:25;;;;;;;5.68;5.05;;;3.40;72.50;;;;;;5034399;28;20033;-79
2020/12/30 02:31:51;;;;;;;5.80;4.80;;;3.40;72.50;;;;;;5042840;28;20029;-76
2020/12/30 02:34:17;;;;;;;9.65;5.25;;;3.40;72.60;;;;;;5025221;28;20318;-77
2020/12/30 02:36:44;;;;;;;10.38;5.00;;;3.40;72.60;;;;;;5045380;28;20544;-76
2020/12/30 02:39:10;;;;;;;5.50;4.68;;;3.40;72.60;;;;;;5045514;28;20461;-76
2020/12/30 02:41:36;;;;;;;7.13;4.88;;;3.50;72.80;;;;;;5044664;28;20381;-76
2020/12/30 02:44:04;;;;;;;5.15;4.53;;;3.40;72.60;;;;;;5044527;28;20033;-76
2020/12/30 02:46:30;;;;;;;8.48;4.43;;;3.50;72.80;;;;;;5041952;28;20041;-76
2020/12/30 02:48:56;;;;;;;7.68;5.18;;;3.40;72.60;;;;;;5030913;28;20552;-76
2020/12/30 02:51:22;;;;;;;4.72;4.18;;;3.50;72.80;;;;;;5054951;28;20392;-76
2020/12/30 02:53:48;;;;;;;5.68;3.97;;;3.50;72.80;;;;;;5051085;28;20025;-76
2020/12/30 02:56:16;;;;;;;4.80;4.00;;;3.50;72.80;;;;;;5050642;28;20135;-76
2020/12/30 02:58:43;;;;;;;7.65;4.22;;;3.50;72.80;;;;;;5051000;28;20033;-76
2020/12/30 03:01:10;;;;;;;5.18;4.15;;;3.50;72.80;;;;;;5034571;28;20036;-77
2020/12/30 03:03:37;;;;;;;6.53;3.75;;;3.50;72.80;;;;;;5050852;28;20029;-76
2020/12/30 03:06:03;;;;;;;6.03;4.28;;;3.50;72.80;;;;;;5051010;28;20123;-76
2020/12/30 03:08:29;;;;;;;8.10;3.80;;;3.50;72.80;;;;;;5051076;28;20033;-76
2020/12/30 03:10:55;;;;;;;6.75;4.20;;;3.50;72.80;;;;;;5050316;28;20029;-75
2020/12/30 03:13:21;;;;;;;6.00;4.28;;;3.50;72.80;;;;;;5052253;28;20068;-76
2020/12/30 03:15:47;;;;;;;3.97;3.58;;;3.50;72.80;;;;;;5034277;28;20059;-76
2020/12/30 03:18:13;;;;;;;5.35;4.38;;;3.50;72.80;;;;;;5050122;28;20040;-76
2020/12/30 03:20:39;;;;;;;4.57;3.03;;;3.50;72.80;;;;;;5050753;28;20102;-75
2020/12/30 03:23:05;;;;;;;4.07;3.50;;;3.60;73.00;;;;;;5051681;28;20029;-76
2020/12/30 03:25:31;;;;;;;4.78;4.10;;;3.60;73.00;;;;;;5051471;28;20123;-76
2020/12/30 03:27:57;;;;;;;4.80;3.28;;;3.60;73.00;;;;;;5050140;28;20055;-77
2020/12/30 03:30:23;;;;;;;4.85;3.60;;;3.60;73.00;;;;;;5050832;28;20128;-76
2020/12/30 03:32:50;;;;;;;5.95;3.40;;;3.60;73.00;;;;;;5034151;28;20511;-76
2020/12/30 03:35:17;;;;;;;8.00;4.55;;;3.50;72.90;;;;;;5050183;28;20040;-75
2020/12/30 03:37:43;;;;;;;4.10;3.55;;;3.60;73.00;;;;;;5051917;28;20487;-76
2020/12/30 03:40:09;;;;;;;5.70;3.47;;;3.60;73.00;;;;;;5051548;28;20434;-75
2020/12/30 03:42:35;;;;;;;4.32;3.65;;;3.60;73.10;;;;;;5051531;28;20175;-76
2020/12/30 03:45:02;;;;;;;3.60;3.13;;;3.60;73.10;;;;;;5033165;28;20108;-75
2020/12/30 03:47:30;;;;;;;4.82;3.13;;;3.60;73.10;;;;;;5051840;28;20144;-74
2020/12/30 03:49:57;;;;;;;5.57;3.40;;;3.60;73.10;;;;;;5051190;28;20059;-75
2020/12/30 03:52:23;;;;;;;4.40;3.00;;;3.60;73.10;;;;;;5052042;28;20568;-75
2020/12/30 03:54:49;;;;;;;5.25;3.17;;;3.70;73.30;;;;;;5052030;28;20376;-74
2020/12/30 03:57:15;;;;;;;3.65;2.92;;;3.60;73.10;;;;;;5049466;28;20445;-75
2020/12/30 03:59:41;;;;;;;3.55;2.88;;;3.60;73.20;;;;;;5051608;28;20043;-76
2020/12/30 04:02:07;;;;;;;5.85;3.42;;;3.60;73.10;;;;;;5032673;28;20033;-76
2020/12/30 04:04:33;;;;;;;3.65;2.75;;;3.70;73.30;;;;;;5050440;28;20060;-75
2020/12/30 04:06:59;;;;;;;5.78;2.85;;;3.60;73.10;;;;;;5050794;28;20116;-75
2020/12/30 04:09:25;;;;;;;4.55;3.38;;;3.70;73.30;;;;;;5050505;28;20025;-76
2020/12/30 04:11:51;;;;;;;3.38;3.08;;;3.70;73.30;;;;;;5049987;28;20029;-76
2020/12/30 04:14:17;;;;;;;5.05;2.80;;;3.60;73.60;;;;;;5051055;28;20039;-75
2020/12/30 04:16:44;;;;;;;4.38;2.42;;;3.70;73.30;;;;;;5050695;28;20025;-75
2020/12/30 04:19:09;;;;;;;4.20;2.83;;;3.60;73.10;;;;;;5050006;28;20472;-75
2020/12/30 04:21:35;;;;;;;5.55;2.40;;;3.70;73.30;;;;;;5049258;28;20079;-76
2020/12/30 04:24:01;;;;;;;3.55;2.85;;;3.60;73.20;;;;;;5049243;28;20056;-75
2020/12/30 04:26:27;;;;;;;7.00;2.83;;;3.60;73.20;;;;;;5046605;28;20712;-75
2020/12/30 04:28:53;;;;;;;2.63;2.38;;;3.60;73.20;;;;;;5040650;28;20112;-75
2020/12/30 04:31:19;;;;;;;4.40;2.67;;;3.60;73.20;;;;;;5030710;28;20160;-75
2020/12/30 04:33:45;;;;;;;3.33;2.50;;;3.60;73.20;;;;;;5030207;28;20041;-77
2020/12/30 04:36:13;;;;;;;2.88;2.42;;;3.60;73.50;;;;;;5030108;28;20041;-75
2020/12/30 04:38:40;;;;;;;5.63;3.17;;;3.50;73.10;;;;;;5030309;28;20602;-74
2020/12/30 04:41:11;;;;;;;4.50;2.58;;;3.50;73.10;;;;;;5030457;28;20610;-74
2020/12/30 04:43:40;;;;;;;3.97;2.35;;;3.50;73.10;;;;;;5030631;28;20037;-75
2020/12/30 04:46:06;;;;;;;3.13;2.22;;;3.50;73.10;;;;;;5029801;28;20057;-75
2020/12/30 04:48:34;;;;;;;4.80;2.25;;;3.50;73.10;;;;;;5030730;28;20073;-75
2020/12/30 04:51:01;;;;;;;3.50;2.53;;;3.50;73.20;;;;;;5030506;28;20079;-75
2020/12/30 04:53:28;;;;;;;4.45;2.00;;;3.50;73.20;;;;;;5028450;28;20454;-74
2020/12/30 04:55:58;;;;;;;2.95;2.65;;;3.40;73.00;;;;;;5029741;28;20051;-75
2020/12/30 04:58:27;;;;;;;3.13;2.65;;;3.40;73.00;;;;;;5028969;28;20045;-76
2020/12/30 05:00:54;;;;;;;6.68;2.67;;;3.40;73.10;;;;;;5029751;28;20034;-76
2020/12/30 05:03:28;;;;;;;2.47;2.28;;;3.40;73.60;;;;;;5045442;28;20029;-76
2020/12/30 05:05:59;;;;;;;4.35;2.20;;;3.30;72.90;;;;;;5028561;28;20033;-77
2020/12/30 05:08:26;;;;;;;4.03;2.55;;;3.40;73.10;;;;;;5029591;28;20338;-77
2020/12/30 05:10:52;;;;;;;2.80;2.33;;;3.30;72.90;;;;;;5030270;28;20437;-76
2020/12/30 05:13:20;;;;;;;2.92;2.45;;;3.30;73.00;;;;;;5029157;28;20037;-76
2020/12/30 05:15:47;;;;;;;3.08;2.08;;;3.30;73.00;;;;;;5030274;28;20026;-76
2020/12/30 05:18:13;;;;;;;3.08;2.47;;;3.30;73.00;;;;;;5012380;28;20033;-77
2020/12/30 05:20:39;;;;;;;3.85;2.30;;;3.20;72.80;;;;;;5029587;28;20021;-76
2020/12/30 05:23:08;;;;;;;2.47;2.00;;;3.20;72.90;;;;;;5047678;28;20049;-77
2020/12/30 05:25:39;;;;;;;4.25;2.45;;;3.20;72.90;;;;;;5048200;28;20469;-77
2020/12/30 05:28:07;;;;;;;5.40;2.28;;;3.20;73.00;;;;;;5048741;28;20025;-76
2020/12/30 05:30:34;;;;;;;4.78;2.65;;;3.10;72.80;;;;;;5048911;28;20025;-76
2020/12/30 05:33:00;;;;;;;2.22;2.03;;;3.10;72.80;;;;;;5050374;28;20337;-78
2020/12/30 05:35:30;;;;;;;2.83;2.35;;;3.10;72.80;;;;;;5050312;28;20404;-78
2020/12/30 05:37:58;;;;;;;3.05;2.38;;;3.10;72.90;;;;;;5048389;28;20057;-76
2020/12/30 05:40:29;;;;;;;3.03;2.60;;;3.00;73.20;;;;;;5050150;28;20106;-78
2020/12/30 05:43:16;;;;;;;3.00;2.30;;;3.00;72.70;;;;;;5049431;28;20155;-79
2020/12/30 05:45:46;;;;;;;2.38;2.17;;;3.00;72.70;;;;;;5049420;28;20029;-77
2020/12/30 05:48:13;;;;;;;3.67;2.40;;;3.00;72.70;;;;;;5036245;28;20511;-76
2020/12/30 05:50:52;;;;;;;5.35;2.30;;;3.00;72.80;;;;;;5025788;28;20061;-76
2020/12/30 05:53:20;;;;;;;3.97;2.15;;;2.90;72.60;;;;;;5026446;28;20036;-77
2020/12/30 05:55:48;;;;;;;5.40;2.60;;;2.90;72.60;;;;;;5024750;28;20196;-77
2020/12/30 05:58:16;;;;;;;2.92;2.70;;;2.90;72.60;;;;;;5043881;28;20033;-76
2020/12/30 06:00:43;;;;;;;3.40;2.50;;;2.90;72.70;;;;;;5044384;28;20029;-77
2020/12/30 06:03:13;;;;;;;2.15;1.98;;;2.80;72.50;;;;;;5040018;28;20044;-81
2020/12/30 06:05:40;;;;;;;4.43;2.42;;;2.80;72.50;;;;;;5045009;28;20527;-78
2020/12/30 06:08:06;;;;;;;4.07;2.88;;;2.80;72.50;;;;;;5036751;28;20025;-82
2020/12/30 06:10:32;;;;;;;3.25;2.40;;;2.80;72.50;;;;;;5043561;28;20028;-77
2020/12/30 06:13:02;;;;;;;3.55;2.22;;;2.80;72.60;;;;;;5033687;28;20111;-76
2020/12/30 06:15:33;;;;;;;5.22;2.80;;;2.80;72.60;;;;;;5016654;28;20032;-79
2020/12/30 06:18:01;;;;;;;3.97;2.60;;;2.80;72.60;;;;;;5023044;28;20055;-77
2020/12/30 06:20:36;;;;;;;3.58;2.83;;;2.70;72.50;;;;;;5043599;28;20027;-78
2020/12/30 06:23:05;;;;;;;4.07;2.50;;;2.70;72.50;;;;;;5046153;28;20508;-83
2020/12/30 06:25:33;;;;;;;5.82;2.85;;;2.70;72.50;;;;;;5030611;28;20105;-76
2020/12/30 06:28:17;;;;;;;6.72;2.70;;;2.70;72.50;;;;;;5040146;28;20025;-76
2020/12/30 06:30:48;;;;;;;6.25;2.75;;;2.70;72.50;;;;;;5051943;28;20032;-82
2020/12/30 06:33:15;;;;;;;4.68;2.63;;;2.60;72.40;;;;;;5053803;28;20060;-77
2020/12/30 06:35:43;;;;;;;3.67;2.88;;;2.60;72.30;;;;;;5048031;28;20510;-81
2020/12/30 06:38:23;;;;;;;5.30;2.60;;;2.60;72.40;;;;;;5033722;28;20021;-78
2020/12/30 06:40:56;;;;;;;3.05;2.67;;;2.50;72.20;;;;;;5054024;28;20051;-80
2020/12/30 06:43:42;;;;;;;5.25;2.92;;;2.50;72.20;;;;;;5050843;28;20051;-79
2020/12/30 06:46:14;;;;;;;3.55;2.83;;;2.50;72.20;;;;;;5034504;28;20714;-79
2020/12/30 06:48:58;;;;;;;5.78;3.50;;;2.50;72.20;;;;;;5054290;28;20055;-79
2020/12/30 06:51:25;;;;;;;3.65;2.90;;;2.50;72.20;;;;;;5035750;28;20036;-78
2020/12/30 06:53:55;;;;;;;4.88;3.35;;;2.50;72.30;;;;;;5048426;28;20159;-75
2020/12/30 06:56:40;;;;;;;4.97;3.47;;;2.40;72.10;;;;;;5047229;28;20041;-74
2020/12/30 06:59:08;;;;;;;6.45;3.92;;;2.40;72.10;;;;;;5045909;28;20460;-72
2020/12/30 07:01:57;;;;;;;5.40;3.75;;;2.40;72.10;;;;;;5045822;28;20488;-73
2020/12/30 07:04:24;;;;;;;6.50;3.60;;;2.40;72.10;;;;;;5029286;28;20037;-75
2020/12/30 07:06:52;;;;;;;4.65;3.78;;;2.40;72.10;;;;;;5039286;28;20025;-78
2020/12/30 07:09:34;;;;;;;6.60;3.53;;;2.30;71.90;;;;;;5041709;28;20354;-74
2020/12/30 07:12:01;;;;;;;6.75;3.80;;;2.40;72.20;;;;;;5023042;28;20080;-74
2020/12/30 07:14:29;;;;;;;9.45;4.30;;;2.30;72.00;;;;;;5023495;28;20033;-74
2020/12/30 07:17:00;;;;;;;5.75;3.72;;;2.30;72.50;;;;;;5040184;28;20539;-74
2020/12/30 07:19:27;;;;;;;5.43;4.20;;;2.30;72.00;;;;;;5040392;28;20652;-75
2020/12/30 07:21:53;;;;;;;9.05;4.40;;;2.30;72.00;;;;;;5042642;28;20052;-74
2020/12/30 07:24:24;;;;;;;8.70;5.18;;;2.30;72.00;;;;;;5044974;28;20041;-75
2020/12/30 07:26:53;;;;;;;6.55;4.10;;;2.30;72.00;;;;;;5043356;28;20113;-73
2020/12/30 07:29:19;;;;;;;7.30;5.07;;;2.20;71.80;;;;;;5043041;28;20048;-74
2020/12/30 07:31:54;;;;;;;8.02;5.38;;;2.20;72.00;;;;;;5044077;28;20033;-75
2020/12/30 07:34:23;;;;;;;7.70;5.22;;;2.20;71.80;;;;;;5043912;28;20035;-74
2020/12/30 07:36:49;;;;;;;6.80;4.82;;;2.20;71.80;;;;;;5044675;28;20040;-74
2020/12/30 07:39:22;;;;;;;10.48;4.75;;;2.20;71.80;;;;;;5045287;28;20064;-74
2020/12/30 07:41:48;;;;;;;6.88;4.50;;;2.20;72.30;;;;;;5046237;28;20186;-74
2020/12/30 07:44:15;;;;;;;7.85;4.95;;;2.20;71.80;;;;;;5046551;28;20031;-75
2020/12/30 07:46:42;;;;;;;8.68;4.60;;;2.20;71.80;;;;;;5028723;28;20052;-75
2020/12/30 07:49:09;;;;;;;7.53;4.57;;;2.20;71.80;;;;;;5045004;28;20033;-73
2020/12/30 07:51:35;;;;;;;9.82;5.35;;;2.20;71.80;;;;;;5045969;28;20040;-73
2020/12/30 07:54:01;;;;;;;6.32;4.50;;;2.20;71.80;;;;;;5046426;28;20036;-73
2020/12/30 07:56:27;;;;;;;7.15;4.95;;;2.20;71.80;;;;;;5042024;28;20056;-75
2020/12/30 07:58:53;;;;;;;7.90;4.55;;;2.30;72.00;;;;;;5043153;28;20379;-76
2020/12/30 08:01:19;;;;;;;13.05;5.90;;;2.20;71.80;;;;;;5044139;28;20032;-73
2020/12/30 08:03:46;;;;;;;6.72;5.40;;;2.20;71.80;;;;;;5044567;28;20086;-73
2020/12/30 08:06:16;;;;;;;11.55;5.43;;;2.30;72.00;;;;;;5044569;28;20033;-75
2020/12/30 08:08:43;;;;;;;8.82;5.97;;;2.30;72.00;;;;;;5043355;28;20033;-74
2020/12/30 08:11:09;;;;;;;10.35;4.95;;;2.30;72.00;;;;;;5042667;28;20094;-74
2020/12/30 08:13:38;;;;;;;8.65;5.85;;;2.30;72.50;;;;;;5044037;28;20036;-75
2020/12/30 08:16:05;;;;;;;8.65;5.53;;;2.30;72.00;;;;;;5044993;28;20103;-73
2020/12/30 08:18:31;;;;;;;8.43;5.47;;;2.30;72.00;;;;;;5044601;28;20052;-74
2020/12/30 08:20:57;;;;;;;15.45;5.82;;;2.30;71.90;;;;;;5044393;28;20077;-73
2020/12/30 08:23:23;;;;;;;7.13;5.28;;;2.40;72.10;;;;;;5044187;28;20036;-74
2020/12/30 08:25:49;;;;;;;8.23;5.75;;;2.30;71.90;;;;;;5043636;28;20040;-74
2020/12/30 08:28:15;;;;;;;8.27;4.93;;;2.30;71.90;;;;;;5045278;28;20040;-74
2020/12/30 08:30:43;;;;;;;13.07;5.88;;;2.30;71.90;;;;;;5045589;28;20108;-73
2020/12/30 08:33:12;;;;;;;8.75;5.40;;;2.30;71.90;;;;;;5044155;28;20025;-74
2020/12/30 08:36:00;;;;;;;7.20;5.80;;;2.30;71.90;;;;;;5046151;28;20052;-74
2020/12/30 08:38:27;;;;;;;10.23;5.85;;;2.30;71.90;;;;;;5044520;28;20535;-74
2020/12/30 08:40:56;;;;;;;9.98;6.18;;;2.30;71.90;;;;;;5045757;28;20075;-74
2020/12/30 08:43:44;;;;;;;10.27;5.70;;;2.30;71.80;;;;;;5042982;28;20029;-73
2020/12/30 08:46:40;;;;;;;10.40;5.55;;;2.30;71.90;;;;;;5042834;28;20492;-73
2020/12/30 08:49:09;;;;;;;8.57;6.18;;;2.30;71.90;;;;;;5036460;28;20037;-74
2020/12/30 08:51:35;;;;;;;9.80;6.22;;;2.30;71.80;;;;;;5045112;28;20037;-74
2020/12/30 08:54:01;;;;;;;8.68;5.82;;;2.30;71.90;;;;;;5043901;28;20032;-73
2020/12/30 08:56:27;;;;;;;11.30;6.28;;;2.30;71.90;;;;;;5037723;28;20516;-72
2020/12/30 08:58:55;;;;;;;8.55;6.00;;;2.30;72.00;;;;;;5042980;28;20324;-74
2020/12/30 09:01:26;;;;;;;9.05;6.65;;;2.30;72.10;;;;;;5043401;28;20033;-75
2020/12/30 09:03:52;;;;;;;12.95;7.13;;;2.40;72.20;;;;;;5043284;28;20124;-76
2020/12/30 09:06:29;;;;;;;13.82;7.38;;;2.40;72.20;;;;;;5043637;28;20021;-74
2020/12/30 09:09:07;;;;;;;13.77;6.88;;;2.50;72.40;;;;;;5045933;28;20032;-77
2020/12/30 09:11:33;;;;;;;12.02;6.97;;;2.50;72.30;;;;;;5045121;28;20028;-79
2020/12/30 09:13:59;;;;;;;15.98;7.65;;;2.60;72.40;;;;;;5044442;28;20196;-76
2020/12/30 09:16:25;;;;;;;7.80;6.18;;;2.60;72.30;;;;;;5045221;28;20094;-72
2020/12/30 09:18:51;;;;;;;9.85;6.75;;;2.60;72.30;;;;;;5042948;28;20033;-73
2020/12/30 09:21:25;;;;;;;11.75;7.43;;;2.70;72.40;;;;;;5042617;28;20036;-74
2020/12/30 09:23:51;;;;;;;9.70;5.95;;;2.70;72.40;;;;;;5043571;28;20556;-75
2020/12/30 09:26:30;;;;;;;13.32;6.22;;;2.70;72.40;;;;;;5043644;28;20025;-74
2020/12/30 09:28:57;;;;;;;10.30;6.70;;;2.70;72.40;;;;;;5026745;28;20202;-75
2020/12/30 09:31:23;;;;;;;9.13;5.53;;;2.80;72.50;;;;;;5043349;28;20043;-74
2020/12/30 09:33:49;;;;;;;13.70;6.75;;;2.80;72.50;;;;;;5044297;28;20032;-75
2020/12/30 09:36:15;;;;;;;12.40;6.75;;;2.80;72.50;;;;;;5043665;28;20028;-73
2020/12/30 09:38:41;;;;;;;10.13;6.88;;;2.80;72.50;;;;;;5044692;28;20029;-74
2020/12/30 09:41:15;;;;;;;14.07;7.63;;;2.80;72.50;;;;;;5038912;28;20039;-74
2020/12/30 09:43:47;;;;;;;11.60;5.45;;;2.80;72.40;;;;;;5074921;28;20033;-75
2020/12/30 09:46:21;;;;;;;8.65;5.35;;;2.80;72.40;;;;;;5042091;28;20037;-75
2020/12/30 09:48:47;;;;;;;10.30;6.95;;;2.80;72.40;;;;;;5043366;28;20254;-74
2020/12/30 09:51:17;;;;;;;11.48;6.95;;;2.90;72.60;;;;;;5044356;28;20460;-73
2020/12/30 09:53:44;;;;;;;11.38;7.13;;;2.90;72.60;;;;;;5045003;28;20450;-75
2020/12/30 09:56:13;;;;;;;12.02;5.35;;;2.80;72.40;;;;;;5047511;28;20144;-74
2020/12/30 09:58:39;;;;;;;11.68;6.10;;;2.90;72.60;;;;;;5046514;28;20036;-73
2020/12/30 10:01:05;;;;;;;8.75;5.95;;;2.90;72.60;;;;;;5048126;28;20044;-73
2020/12/30 10:03:31;;;;;;;12.18;6.30;;;2.80;72.50;;;;;;5013097;28;20036;-73
2020/12/30 10:05:57;;;;;;;11.52;6.40;;;2.80;72.50;;;;;;5037786;28;20025;-73
2020/12/30 10:08:23;;;;;;;12.07;7.03;;;2.90;72.60;;;;;;5047229;28;20036;-74
2020/12/30 10:10:50;;;;;;;11.45;5.88;;;2.90;72.60;;;;;;5047879;28;20136;-74
2020/12/30 10:13:16;;;;;;;12.27;6.93;;;2.90;72.60;;;;;;5047731;28;20057;-74
2020/12/30 10:15:42;;;;;;;14.63;6.43;;;3.00;72.80;;;;;;5047767;28;20064;-74
2020/12/30 10:18:08;;;;;;;10.50;6.38;;;2.90;72.60;;;;;;5046668;28;20382;-73
2020/12/30 10:20:34;;;;;;;8.77;6.10;;;2.90;72.60;;;;;;5046672;28;20029;-74
2020/12/30 10:23:00;;;;;;;10.13;5.97;;;3.00;72.70;;;;;;5046803;28;20052;-73
2020/12/30 10:25:26;;;;;;;8.88;5.82;;;3.00;72.70;;;;;;5027352;28;20052;-74
2020/12/30 10:27:52;;;;;;;10.00;6.38;;;3.00;72.70;;;;;;5047825;28;20037;-75
2020/12/30 10:30:18;;;;;;;10.43;6.03;;;3.00;72.70;;;;;;5047003;28;20021;-75
2020/12/30 10:32:44;;;;;;;8.88;5.68;;;3.00;72.70;;;;;;5046742;28;20033;-79
2020/12/30 10:35:10;;;;;;;11.32;5.90;;;3.00;72.70;;;;;;5047359;28;20092;-75
2020/12/30 10:37:36;;;;;;;9.52;5.72;;;3.00;72.80;;;;;;5029935;28;20047;-74
2020/12/30 10:40:04;;;;;;;17.60;6.85;;;3.10;73.20;;;;;;5048518;28;20806;-75
2020/12/30 10:42:30;;;;;;;9.27;5.63;;;3.10;73.20;;;;;;5031317;28;20155;-75
2020/12/30 10:44:56;;;;;;;9.20;6.03;;;3.20;73.30;;;;;;5047094;28;20116;-75
2020/12/30 10:47:22;;;;;;;9.07;6.72;;;3.20;73.30;;;;;;5046581;28;20057;-75
2020/12/30 10:49:48;;;;;;;11.00;6.55;;;3.30;73.50;;;;;;5028291;28;20025;-75
2020/12/30 10:52:14;;;;;;;10.95;6.70;;;3.40;73.70;;;;;;5046249;28;20090;-74
2020/12/30 10:54:43;;;;;;;12.40;6.57;;;3.50;73.90;;;;;;5029290;28;20033;-75
2020/12/30 10:57:09;;;;;;;8.52;6.75;;;3.50;73.90;;;;;;5045057;28;20033;-75
2020/12/30 10:59:36;;;;;;;8.95;6.93;;;3.60;74.10;;;;;;5029874;28;20267;-74
2020/12/30 11:02:02;;;;;;;11.45;7.15;;;3.70;74.20;;;;;;5042320;28;20512;-75
2020/12/30 11:04:28;;;;;;;10.63;6.50;;;3.80;74.40;;;;;;5045650;28;20021;-75
2020/12/30 11:06:54;;;;;;;14.13;8.23;;;3.90;74.50;;;;;;5044811;28;20033;-74
2020/12/30 11:09:20;;;;;;;13.10;8.68;;;4.10;74.90;;;;;;5044862;28;20036;-74
2020/12/30 11:11:48;;;;;;;15.65;9.48;;;4.20;75.00;;;;;;5028793;28;20033;-74
2020/12/30 11:14:14;;;;;;;24.15;19.30;;;4.20;75.00;;;;;;5028984;28;20481;-73
2020/12/30 11:16:40;;;;;;;26.60;21.08;;;4.40;75.40;;;;;;5046764;28;20064;-74
2020/12/30 11:19:06;;;;;;;20.25;16.77;;;4.50;75.60;;;;;;5045573;28;20070;-74
2020/12/30 11:21:32;;;;;;;16.88;14.68;;;4.60;75.60;;;;;;5045367;28;20029;-73
2020/12/30 11:23:58;;;;;;;16.65;14.93;;;4.70;75.70;;;;;;5025026;28;20033;-75
2020/12/30 11:26:24;;;;;;;17.48;15.65;;;4.80;75.80;;;;;;5025340;28;20025;-74
2020/12/30 11:28:50;;;;;;;15.77;14.23;;;4.90;75.90;;;;;;5037843;28;20116;-74
2020/12/30 11:31:16;;;;;;;15.50;14.10;;;4.90;75.90;;;;;;5028628;28;20453;-74
2020/12/30 11:33:42;;;;;;;14.70;13.20;;;5.00;76.00;;;;;;5037528;28;20035;-73
2020/12/30 11:36:08;;;;;;;13.85;12.50;;;5.00;76.00;;;;;;5041442;28;20025;-72
2020/12/30 11:38:34;;;;;;;16.13;12.32;;;5.10;76.30;;;;;;5043051;28;20326;-73
2020/12/30 11:41:00;;;;;;;13.52;12.18;;;5.10;76.30;;;;;;5027402;28;20064;-73
2020/12/30 11:43:26;;;;;;;17.35;12.63;;;5.20;76.50;;;;;;5027621;28;20075;-73
2020/12/30 11:45:52;;;;;;;14.40;11.77;;;5.20;76.60;;;;;;5045596;28;20461;-72
2020/12/30 11:48:19;;;;;;;12.40;11.20;;;5.20;76.70;;;;;;5045659;28;20120;-73
2020/12/30 11:50:45;;;;;;;13.60;11.48;;;5.30;76.90;;;;;;5028151;28;20029;-71
2020/12/30 11:53:11;;;;;;;17.08;12.00;;;5.30;76.90;;;;;;5045808;28;20461;-74
2020/12/30 11:55:37;;;;;;;11.20;10.02;;;5.30;76.90;;;;;;5045637;28;20458;-74
2020/12/30 11:58:03;;;;;;;13.20;10.55;;;5.40;77.10;;;;;;5044183;28;20112;-74
2020/12/30 12:00:29;;;;;;;18.17;11.30;;;5.40;77.10;;;;;;5044104;28;20188;-73
2020/12/30 12:02:55;;;;;;;15.02;11.40;;;5.50;77.30;;;;;;5027230;28;20139;-72
2020/12/30 12:05:21;;;;;;;12.00;10.30;;;5.50;77.40;;;;;;5027912;28;20485;-72
2020/12/30 12:07:47;;;;;;;11.60;9.23;;;5.50;77.30;;;;;;5044229;28;20025;-73
2020/12/30 12:10:13;;;;;;;11.68;9.55;;;5.60;77.50;;;;;;5043854;28;20123;-73
2020/12/30 12:12:39;;;;;;;11.73;9.63;;;5.60;77.60;;;;;;5044036;28;20056;-71
2020/12/30 12:15:05;;;;;;;11.82;8.90;;;5.70;77.80;;;;;;5045612;28;20255;-72
2020/12/30 12:17:32;;;;;;;10.82;9.25;;;5.70;77.80;;;;;;5044780;28;20082;-74
2020/12/30 12:19:58;;;;;;;13.98;10.32;;;5.70;77.80;;;;;;5046279;28;20037;-73
2020/12/30 12:22:25;;;;;;;10.68;8.75;;;5.80;78.00;;;;;;5026338;28;20080;-72
2020/12/30 12:24:51;;;;;;;14.77;10.05;;;5.80;78.00;;;;;;5042337;28;20503;-73
2020/12/30 12:27:18;;;;;;;10.73;8.02;;;5.90;78.20;;;;;;5035220;28;20164;-73
2020/12/30 12:29:47;;;;;;;12.05;9.93;;;5.90;78.30;;;;;;5044339;28;20496;-74
2020/12/30 12:32:17;;;;;;;13.02;9.70;;;6.00;78.30;;;;;;5027036;28;20488;-73
2020/12/30 12:34:45;;;;;;;13.27;9.48;;;6.00;78.30;;;;;;5043656;28;20532;-74
2020/12/30 12:37:14;;;;;;;17.27;9.35;;;6.00;78.30;;;;;;5043552;28;20113;-73
2020/12/30 12:39:41;;;;;;;13.43;9.32;;;6.10;78.50;;;;;;5040071;28;20060;-73
2020/12/30 12:42:07;;;;;;;10.85;8.20;;;6.10;78.50;;;;;;5039892;28;20082;-73
2020/12/30 12:44:33;;;;;;;12.43;8.98;;;6.20;78.70;;;;;;5044528;28;20028;-74
2020/12/30 12:46:59;;;;;;;14.40;8.65;;;6.20;78.70;;;;;;5027361;28;20323;-73
2020/12/30 12:49:25;;;;;;;12.13;8.90;;;6.20;79.00;;;;;;5026889;28;20497;-73
2020/12/30 12:51:54;;;;;;;10.10;8.48;;;6.20;78.70;;;;;;5043638;28;20047;-73
2020/12/30 12:54:20;;;;;;;11.02;8.60;;;6.30;79.00;;;;;;5043167;28;20643;-73
2020/12/30 12:56:47;;;;;;;12.18;8.32;;;6.30;78.90;;;;;;5043286;28;20128;-73